createdAt,value
2022-07-29T00:00:01.691Z,38.49
2022-07-29T00:02:29.170Z,38.85
2022-07-29T00:04:56.002Z,39.65
2022-07-29T00:07:22.709Z,41.31
2022-07-29T00:09:51.811Z,41.40
2022-07-29T00:12:26.307Z,40.63
2022-07-29T00:14:55.760Z,41.02
2022-07-29T00:17:26.213Z,41.42
2022-07-29T00:19:53.017Z,41.50
2022-07-29T00:22:21.025Z,41.57
2022-07-29T00:24:50.971Z,41.19
2022-07-29T00:27:18.655Z,41.85
2022-07-29T00:29:45.697Z,42.73
2022-07-29T00:32:12.642Z,42.45
2022-07-29T00:34:57.813Z,43.41
2022-07-29T00:37:25.196Z,43.55
2022-07-29T00:39:52.039Z,44.97
2022-07-29T00:42:18.829Z,45.53
2022-07-29T00:44:45.571Z,44.86
2022-07-29T00:47:13.383Z,45.62
2022-07-29T00:49:41.984Z,45.20
2022-07-29T00:52:11.273Z,46.09
2022-07-29T00:54:44.354Z,46.16
2022-07-29T00:57:12.915Z,46.67
2022-07-29T00:59:40.436Z,47.78
2022-07-29T01:02:07.245Z,48.30
2022-07-29T01:04:34.461Z,47.44
2022-07-29T01:07:03.572Z,46.49
2022-07-29T01:09:34.304Z,47.54
2022-07-29T01:12:25.527Z,47.02
2022-07-29T01:14:55.195Z,48.05
2022-07-29T01:17:50.367Z,48.75
2022-07-29T01:20:23.168Z,49.71
2022-07-29T01:23:20.411Z,51.01
2022-07-29T01:26:04.041Z,49.36
2022-07-29T01:29:20.739Z,48.26
2022-07-29T01:32:06.755Z,47.31
2022-07-29T01:34:46.592Z,47.42
2022-07-29T01:37:37.994Z,49.23
2022-07-29T01:40:09.520Z,49.47
2022-07-29T01:42:49.589Z,49.74
2022-07-29T01:45:33.887Z,49.83
2022-07-29T01:48:07.814Z,48.41
2022-07-29T01:50:41.221Z,48.23
2022-07-29T01:53:11.471Z,47.29
2022-07-29T01:55:45.507Z,49.74
2022-07-29T01:58:14.605Z,49.36
2022-07-29T02:00:43.911Z,49.33
2022-07-29T02:03:14.038Z,48.17
2022-07-29T02:05:44.912Z,50.35
2022-07-29T02:08:13.973Z,49.66
2022-07-29T02:10:43.203Z,48.89
2022-07-29T02:13:12.259Z,50.25
2022-07-29T02:15:42.690Z,48.65
2022-07-29T02:18:18.215Z,47.19
2022-07-29T02:20:50.347Z,49.41
2022-07-29T02:23:21.939Z,48.97
2022-07-29T02:25:57.818Z,49.10
2022-07-29T02:28:28.552Z,50.94
2022-07-29T02:30:59.807Z,53.36
2022-07-29T02:33:27.968Z,53.88
2022-07-29T02:35:57.337Z,54.08
2022-07-29T02:38:45.014Z,54.37
2022-07-29T02:41:16.680Z,52.73
2022-07-29T02:43:46.059Z,51.23
2022-07-29T02:46:28.243Z,50.18
2022-07-29T02:49:35.844Z,50.75
2022-07-29T02:52:09.488Z,50.63
2022-07-29T02:54:47.025Z,50.47
2022-07-29T02:57:54.448Z,48.15
2022-07-29T03:00:27.895Z,49.78
2022-07-29T03:02:59.679Z,50.49
2022-07-29T03:05:27.154Z,48.37
2022-07-29T03:08:02.249Z,50.63
2022-07-29T03:10:29.514Z,51.50
2022-07-29T03:12:57.447Z,51.26
2022-07-29T03:15:26.910Z,52.33
2022-07-29T03:17:53.928Z,50.71
2022-07-29T03:20:20.987Z,51.17
2022-07-29T03:22:48.051Z,50.65
2022-07-29T03:25:17.193Z,49.49
2022-07-29T03:27:45.001Z,49.72
2022-07-29T03:30:21.617Z,50.21
2022-07-29T03:32:50.032Z,49.80
2022-07-29T03:35:20.331Z,49.57
2022-07-29T03:37:47.805Z,50.36
2022-07-29T03:40:22.883Z,52.51
2022-07-29T03:42:52.119Z,53.34
2022-07-29T03:45:21.346Z,52.53
2022-07-29T03:48:00.600Z,52.08
2022-07-29T03:50:31.568Z,51.31
2022-07-29T03:52:59.121Z,51.52
2022-07-29T03:55:27.529Z,50.92
2022-07-29T03:57:56.332Z,50.22
2022-07-29T04:00:26.513Z,49.74
2022-07-29T04:02:53.231Z,49.19
2022-07-29T04:05:20.177Z,48.34
2022-07-29T04:07:48.611Z,49.92
2022-07-29T04:10:17.836Z,51.34
2022-07-29T04:12:57.591Z,51.02
2022-07-29T04:15:24.406Z,50.88
2022-07-29T04:17:51.427Z,52.35
2022-07-29T04:20:18.358Z,53.18
2022-07-29T04:22:45.068Z,52.01
2022-07-29T04:25:11.815Z,51.76
2022-07-29T04:27:58.557Z,49.83
2022-07-29T04:30:25.341Z,49.99
2022-07-29T04:32:52.032Z,50.25
2022-07-29T04:35:23.132Z,51.76
2022-07-29T04:37:49.851Z,52.12
2022-07-29T04:40:16.712Z,51.18
2022-07-29T04:42:47.234Z,50.76
2022-07-29T04:45:15.049Z,50.14
2022-07-29T04:47:43.157Z,48.56
2022-07-29T04:50:11.033Z,48.06
2022-07-29T04:52:38.281Z,48.35
2022-07-29T04:55:06.518Z,48.57
2022-07-29T04:57:33.769Z,47.96
2022-07-29T05:00:00.652Z,48.97
2022-07-29T05:02:27.497Z,48.96
2022-07-29T05:04:54.267Z,50.93
2022-07-29T05:07:21.059Z,50.39
2022-07-29T05:09:48.065Z,50.71
2022-07-29T05:12:14.853Z,50.69
2022-07-29T05:14:41.756Z,49.33
2022-07-29T05:17:08.488Z,47.70
2022-07-29T05:19:39.639Z,47.83
2022-07-29T05:22:07.031Z,49.31
2022-07-29T05:24:33.811Z,50.20
2022-07-29T05:27:00.514Z,49.60
2022-07-29T05:29:44.638Z,50.18
2022-07-29T05:32:13.481Z,48.51
2022-07-29T05:34:50.119Z,50.36
2022-07-29T05:37:17.423Z,50.64
2022-07-29T05:39:47.452Z,49.50
2022-07-29T05:42:15.874Z,49.46
2022-07-29T05:44:42.636Z,48.96
2022-07-29T05:47:09.653Z,48.52
2022-07-29T05:49:36.416Z,47.04
2022-07-29T05:52:03.469Z,45.86
2022-07-29T05:54:30.249Z,45.62
2022-07-29T05:56:57.264Z,45.07
2022-07-29T05:59:28.342Z,45.63
2022-07-29T06:01:58.074Z,46.64
2022-07-29T06:04:25.063Z,46.56
2022-07-29T06:06:51.802Z,45.40
2022-07-29T06:09:18.601Z,46.27
2022-07-29T06:11:45.594Z,45.61
2022-07-29T06:14:12.393Z,45.00
2022-07-29T06:16:39.244Z,43.60
2022-07-29T06:19:05.992Z,42.39
2022-07-29T06:21:32.792Z,40.70
2022-07-29T06:23:59.546Z,39.87
2022-07-29T06:26:30.977Z,39.29
2022-07-29T06:28:58.726Z,41.76
2022-07-29T06:31:25.774Z,42.65
2022-07-29T06:33:54.679Z,42.06
2022-07-29T06:36:22.973Z,42.03
2022-07-29T06:38:52.298Z,40.85
2022-07-29T06:41:20.444Z,40.04
2022-07-29T06:43:52.571Z,37.91
2022-07-29T06:46:23.931Z,37.07
2022-07-29T06:48:52.514Z,35.70
2022-07-29T06:51:22.444Z,34.26
2022-07-29T06:54:00.581Z,34.80
2022-07-29T06:56:38.573Z,36.06
2022-07-29T06:59:08.846Z,35.31
2022-07-29T07:01:37.990Z,35.56
2022-07-29T07:04:05.002Z,34.52
2022-07-29T07:06:31.763Z,34.53
2022-07-29T07:08:58.511Z,34.44
2022-07-29T07:11:25.277Z,33.49
2022-07-29T07:13:51.978Z,33.37
2022-07-29T07:16:18.844Z,33.41
2022-07-29T07:18:46.229Z,32.05
2022-07-29T07:21:18.861Z,32.33
2022-07-29T07:23:47.113Z,32.74
2022-07-29T07:26:13.867Z,33.83
2022-07-29T07:28:40.626Z,34.06
2022-07-29T07:31:07.359Z,32.53
2022-07-29T07:33:34.061Z,34.95
2022-07-29T07:36:00.930Z,32.03
2022-07-29T07:38:27.812Z,30.70
2022-07-29T07:40:54.551Z,34.31
2022-07-29T07:43:21.351Z,34.17
2022-07-29T07:45:48.241Z,34.24
2022-07-29T07:48:15.136Z,33.49
2022-07-29T07:50:41.940Z,33.35
2022-07-29T07:53:08.843Z,33.44
2022-07-29T07:56:07.968Z,31.24
2022-07-29T07:58:29.053Z,31.13
2022-07-29T08:00:55.794Z,33.35
2022-07-29T08:03:22.585Z,34.13
2022-07-29T08:05:51.542Z,33.09
2022-07-29T08:08:18.912Z,32.58
2022-07-29T08:10:54.703Z,32.10
2022-07-29T08:13:24.182Z,31.52
2022-07-29T08:16:12.254Z,30.54
2022-07-29T08:18:41.664Z,30.36
2022-07-29T08:21:08.433Z,33.10
2022-07-29T08:23:49.647Z,32.35
2022-07-29T08:26:23.623Z,30.81
2022-07-29T08:28:51.806Z,29.07
2022-07-29T08:31:19.118Z,27.80
2022-07-29T08:33:46.047Z,26.91
2022-07-29T08:36:14.033Z,26.38
2022-07-29T08:38:40.783Z,27.72
2022-07-29T08:41:07.706Z,29.44
2022-07-29T08:43:38.170Z,29.90
2022-07-29T08:46:05.025Z,28.52
2022-07-29T08:48:33.385Z,29.10
2022-07-29T08:51:01.550Z,27.69
2022-07-29T08:53:30.018Z,28.66
2022-07-29T08:55:57.870Z,26.93
2022-07-29T08:58:26.404Z,25.59
2022-07-29T09:00:57.385Z,27.25
2022-07-29T09:03:28.391Z,24.77
2022-07-29T09:05:55.393Z,24.59
2022-07-29T09:08:22.410Z,23.23
2022-07-29T09:10:49.529Z,23.43
2022-07-29T09:13:16.251Z,23.06
2022-07-29T09:15:42.980Z,22.80
2022-07-29T09:18:19.483Z,22.80
2022-07-29T09:21:22.306Z,21.25
2022-07-29T09:24:13.947Z,21.10
2022-07-29T09:26:45.778Z,20.15
2022-07-29T09:29:18.516Z,20.72
2022-07-29T09:31:49.615Z,20.03
2022-07-29T09:34:32.284Z,18.86
2022-07-29T09:36:59.270Z,19.25
2022-07-29T09:39:45.061Z,19.37
2022-07-29T09:42:14.119Z,19.85
2022-07-29T09:44:51.423Z,19.75
2022-07-29T09:47:22.647Z,20.31
2022-07-29T09:49:58.734Z,19.32
2022-07-29T09:52:31.002Z,19.33
2022-07-29T09:55:09.431Z,20.48
2022-07-29T09:57:36.242Z,22.00
2022-07-29T10:00:18.962Z,21.12
2022-07-29T10:02:47.610Z,20.86
2022-07-29T10:05:22.003Z,19.67
2022-07-29T10:07:57.917Z,20.38
2022-07-29T10:10:36.897Z,19.36
2022-07-29T10:13:15.206Z,18.51
2022-07-29T10:15:46.243Z,18.77
2022-07-29T10:18:15.157Z,18.49
2022-07-29T10:20:42.537Z,18.80
2022-07-29T10:23:10.418Z,18.78
2022-07-29T10:25:37.890Z,18.02
2022-07-29T10:28:06.743Z,18.17
2022-07-29T10:30:33.765Z,19.54
2022-07-29T10:33:58.132Z,18.90
2022-07-29T10:37:04.878Z,19.38
2022-07-29T10:40:01.879Z,19.54
2022-07-29T10:42:34.268Z,19.77
2022-07-29T10:45:04.890Z,20.23
2022-07-29T10:47:32.116Z,20.38
2022-07-29T10:50:01.841Z,21.23
2022-07-29T10:52:58.428Z,21.34
2022-07-29T10:55:39.241Z,21.79
2022-07-29T10:58:18.856Z,21.28
2022-07-29T11:00:56.389Z,21.46
2022-07-29T11:03:53.748Z,23.05
2022-07-29T11:06:28.207Z,23.72
2022-07-29T11:12:43.550Z,21.55
2022-07-29T11:15:24.990Z,21.54
2022-07-29T11:17:54.800Z,21.19
2022-07-29T11:20:50.030Z,22.74
2022-07-29T11:23:33.533Z,22.61
2022-07-29T11:26:33.432Z,21.81
2022-07-29T11:29:25.531Z,21.99
2022-07-29T11:31:56.924Z,21.50
2022-07-29T11:34:37.977Z,21.05
2022-07-29T11:37:07.733Z,22.45
2022-07-29T11:39:37.735Z,24.66
2022-07-29T11:42:32.426Z,24.04
2022-07-29T11:45:42.100Z,23.55
2022-07-29T11:48:05.414Z,23.21
2022-07-29T11:50:45.953Z,23.42
2022-07-29T11:53:16.184Z,23.23
2022-07-29T11:55:50.928Z,22.61
2022-07-29T11:58:25.158Z,22.02
2022-07-29T12:00:53.228Z,21.69
2022-07-29T12:03:34.796Z,22.27
2022-07-29T12:07:03.291Z,21.38
2022-07-29T12:09:11.194Z,20.98
2022-07-29T12:11:41.485Z,20.82
2022-07-29T12:14:34.483Z,21.17
2022-07-29T12:17:01.741Z,22.35
2022-07-29T12:19:28.590Z,21.73
2022-07-29T12:22:02.337Z,21.07
2022-07-29T12:24:45.042Z,20.77
2022-07-29T12:27:12.834Z,20.33
2022-07-29T12:29:41.984Z,21.69
2022-07-29T12:32:19.552Z,22.75
2022-07-29T12:34:47.191Z,21.89
2022-07-29T12:37:14.036Z,20.93
2022-07-29T12:39:41.030Z,20.74
2022-07-29T12:42:18.763Z,21.43
2022-07-29T12:44:51.342Z,21.56
2022-07-29T12:47:19.450Z,23.00
2022-07-29T12:49:49.146Z,22.46
2022-07-29T12:52:34.850Z,21.93
2022-07-29T12:55:02.626Z,21.28
2022-07-29T12:57:30.356Z,20.58
2022-07-29T13:00:12.062Z,21.12
2022-07-29T13:02:41.675Z,21.01
2022-07-29T13:05:10.220Z,21.97
2022-07-29T13:07:54.937Z,22.28
2022-07-29T13:10:24.371Z,22.40
2022-07-29T13:13:13.264Z,23.65
2022-07-29T13:15:44.537Z,22.44
2022-07-29T13:18:31.179Z,21.25
2022-07-29T13:21:10.718Z,20.04
2022-07-29T13:23:38.336Z,20.77
2022-07-29T13:26:12.729Z,20.79
2022-07-29T13:28:39.455Z,22.00
2022-07-29T13:31:06.316Z,23.14
2022-07-29T13:33:33.046Z,23.96
2022-07-29T13:35:59.826Z,22.23
2022-07-29T13:38:31.055Z,22.06
2022-07-29T13:40:58.833Z,19.92
2022-07-29T13:43:25.622Z,20.73
2022-07-29T13:45:52.974Z,19.16
2022-07-29T13:48:19.801Z,17.54
2022-07-29T13:50:47.612Z,16.28
2022-07-29T13:53:17.734Z,16.21
2022-07-29T13:55:45.257Z,16.46
2022-07-29T13:58:12.051Z,14.45
2022-07-29T14:00:38.809Z,15.63
2022-07-29T14:03:05.575Z,18.57
2022-07-29T14:05:32.319Z,18.75
2022-07-29T14:07:59.191Z,19.63
2022-07-29T14:10:27.050Z,21.16
2022-07-29T14:12:53.820Z,22.24
2022-07-29T14:15:21.244Z,21.41
2022-07-29T14:17:48.080Z,21.83
2022-07-29T14:22:41.903Z,20.89
2022-07-29T14:25:15.158Z,19.86
2022-07-29T14:27:44.597Z,19.31
2022-07-29T14:30:12.389Z,19.52
2022-07-29T14:32:39.099Z,19.88
2022-07-29T14:35:07.032Z,19.61
2022-07-29T14:37:37.583Z,19.12
2022-07-29T14:40:08.832Z,20.94
2022-07-29T14:42:35.692Z,20.38
2022-07-29T14:45:02.427Z,20.18
2022-07-29T14:47:29.218Z,19.92
2022-07-29T14:49:56.386Z,19.18
2022-07-29T14:52:23.202Z,19.41
2022-07-29T14:54:50.106Z,18.94
2022-07-29T14:57:17.438Z,19.67
2022-07-29T14:59:44.226Z,19.19
2022-07-29T15:02:11.048Z,19.01
2022-07-29T15:04:37.868Z,18.72
2022-07-29T15:07:04.767Z,18.02
2022-07-29T15:09:31.552Z,17.82
2022-07-29T15:11:58.740Z,18.14
2022-07-29T15:14:25.691Z,17.76
2022-07-29T15:16:52.748Z,16.06
2022-07-29T15:19:20.399Z,16.25
2022-07-29T15:21:48.762Z,16.35
2022-07-29T15:24:19.956Z,14.45
2022-07-29T15:26:48.543Z,14.14
2022-07-29T15:29:16.163Z,15.22
2022-07-29T15:31:44.076Z,18.01
2022-07-29T15:34:10.823Z,17.61
2022-07-29T15:36:53.691Z,18.22
2022-07-29T15:39:22.133Z,18.70
2022-07-29T15:41:50.390Z,17.52
2022-07-29T15:44:17.666Z,16.89
2022-07-29T15:47:19.799Z,16.75
2022-07-29T15:49:49.379Z,16.37
2022-07-29T15:52:26.024Z,15.95
2022-07-29T15:54:55.155Z,17.72
2022-07-29T15:57:21.954Z,17.39
2022-07-29T15:59:48.794Z,18.74
2022-07-29T16:02:15.614Z,20.50
2022-07-29T16:04:42.318Z,20.10
2022-07-29T16:07:09.069Z,20.15
2022-07-29T16:09:35.780Z,20.60
2022-07-29T16:12:02.600Z,20.66
2022-07-29T16:14:36.808Z,19.83
2022-07-29T16:17:04.611Z,20.45
2022-07-29T16:19:31.443Z,20.90
2022-07-29T16:21:59.911Z,20.67
2022-07-29T16:24:29.731Z,21.03
2022-07-29T16:26:57.240Z,22.18
2022-07-29T16:29:24.394Z,21.60
2022-07-29T16:31:51.329Z,20.97
2022-07-29T16:34:18.077Z,21.32
2022-07-29T16:36:47.724Z,21.73
2022-07-29T16:39:14.754Z,21.18
2022-07-29T16:41:42.224Z,21.05
2022-07-29T16:44:09.014Z,20.30
2022-07-29T16:46:37.403Z,20.70
2022-07-29T16:49:05.935Z,20.89
2022-07-29T16:51:32.795Z,20.78
2022-07-29T16:53:59.558Z,20.56
2022-07-29T16:56:26.235Z,20.40
2022-07-29T16:58:52.973Z,21.11
2022-07-29T17:01:20.147Z,21.02
2022-07-29T17:04:05.745Z,21.12
2022-07-29T17:06:37.700Z,20.71
2022-07-29T17:09:06.854Z,21.15
2022-07-29T17:11:52.325Z,21.31
2022-07-29T17:14:24.035Z,21.46
2022-07-29T17:17:02.902Z,22.23
2022-07-29T17:19:35.661Z,21.72
2022-07-29T17:22:13.010Z,22.07
2022-07-29T17:24:43.089Z,20.34
2022-07-29T17:27:10.451Z,20.15
2022-07-29T17:29:38.770Z,19.81
2022-07-29T17:32:07.484Z,20.12
2022-07-29T17:34:38.480Z,20.36
2022-07-29T17:37:07.103Z,20.31
2022-07-29T17:39:35.441Z,20.05
2022-07-29T17:42:04.389Z,19.14
2022-07-29T17:44:31.230Z,19.17
2022-07-29T17:46:59.513Z,20.18
2022-07-29T17:49:27.215Z,20.95
2022-07-29T17:51:57.645Z,22.33
2022-07-29T17:54:27.549Z,23.24
2022-07-29T17:56:54.348Z,22.57
2022-07-29T17:59:21.764Z,22.90
2022-07-29T18:01:48.550Z,23.42
2022-07-29T18:04:20.060Z,24.42
2022-07-29T18:06:46.882Z,24.50
2022-07-29T18:09:13.589Z,24.21
2022-07-29T18:11:40.332Z,24.51
2022-07-29T18:14:11.223Z,24.92
2022-07-29T18:16:38.395Z,25.40
2022-07-29T18:19:05.307Z,25.81
2022-07-29T18:21:41.090Z,25.54
2022-07-29T18:24:18.722Z,26.25
2022-07-29T18:26:45.441Z,26.39
2022-07-29T18:29:12.350Z,26.06
2022-07-29T18:31:41.059Z,26.99
2022-07-29T18:34:07.911Z,26.79
2022-07-29T18:36:34.604Z,26.50
2022-07-29T18:39:01.311Z,26.59
2022-07-29T18:41:27.993Z,26.26
2022-07-29T18:43:54.727Z,26.02
2022-07-29T18:46:21.520Z,25.83
2022-07-29T18:48:48.337Z,26.29
2022-07-29T18:51:15.212Z,26.72
2022-07-29T18:53:43.211Z,27.12
2022-07-29T18:56:09.887Z,27.66
2022-07-29T18:58:38.230Z,27.29
2022-07-29T19:01:06.312Z,28.06
2022-07-29T19:03:33.040Z,27.66
2022-07-29T19:05:59.745Z,27.87
2022-07-29T19:08:26.472Z,26.98
2022-07-29T19:10:53.359Z,27.77
2022-07-29T19:13:20.114Z,27.40
2022-07-29T19:15:46.990Z,27.25
2022-07-29T19:18:13.812Z,27.37
2022-07-29T19:20:42.048Z,26.75
2022-07-29T19:23:09.208Z,27.51
2022-07-29T19:25:37.348Z,27.96
2022-07-29T19:28:20.057Z,27.85
2022-07-29T19:30:46.886Z,28.41
2022-07-29T19:33:17.319Z,27.55
2022-07-29T19:35:45.261Z,27.39
2022-07-29T19:38:12.863Z,27.77
2022-07-29T19:40:40.114Z,27.70
2022-07-29T19:43:50.864Z,27.39
2022-07-29T19:45:54.006Z,28.65
2022-07-29T19:48:20.733Z,28.69
2022-07-29T19:50:47.450Z,29.56
2022-07-29T19:53:14.258Z,30.27
2022-07-29T19:55:41.943Z,29.84
2022-07-29T19:58:08.887Z,29.60
2022-07-29T20:00:35.582Z,30.69
2022-07-29T20:03:04.593Z,31.42
2022-07-29T20:05:31.616Z,31.51
2022-07-29T20:07:58.577Z,32.12
2022-07-29T20:10:25.557Z,32.13
2022-07-29T20:12:55.074Z,30.92
2022-07-29T20:15:22.357Z,31.18
2022-07-29T20:17:50.333Z,31.26
2022-07-29T20:20:19.600Z,30.85
2022-07-29T20:22:46.338Z,31.19
2022-07-29T20:25:15.278Z,31.12
2022-07-29T20:27:42.841Z,31.27
2022-07-29T20:30:13.198Z,30.34
2022-07-29T20:32:41.325Z,30.44
2022-07-29T20:35:09.906Z,30.34
2022-07-29T20:37:56.322Z,30.19
2022-07-29T20:40:25.674Z,30.07
2022-07-29T20:42:53.802Z,30.14
2022-07-29T20:45:21.063Z,30.92
2022-07-29T20:47:47.968Z,31.17
2022-07-29T20:50:14.920Z,31.39
2022-07-29T20:52:43.307Z,31.76
2022-07-29T20:55:10.595Z,31.98
2022-07-29T20:57:39.106Z,31.25
2022-07-29T21:00:07.753Z,32.26
2022-07-29T21:02:34.768Z,32.41
2022-07-29T21:05:01.523Z,32.57
2022-07-29T21:07:28.275Z,31.97
2022-07-29T21:09:54.952Z,31.88
2022-07-29T21:12:22.320Z,31.93
2022-07-29T21:14:49.393Z,32.21
2022-07-29T21:17:17.462Z,32.64
2022-07-29T21:19:47.945Z,31.56
2022-07-29T21:22:14.692Z,32.01
2022-07-29T21:24:41.566Z,32.28
2022-07-29T21:27:27.280Z,32.92
2022-07-29T21:29:54.404Z,32.80
2022-07-29T21:32:29.527Z,32.26
2022-07-29T21:34:58.175Z,32.77
2022-07-29T21:37:25.326Z,32.12
2022-07-29T21:39:52.109Z,31.31
2022-07-29T21:42:18.939Z,30.86
2022-07-29T21:44:45.692Z,30.60
2022-07-29T21:47:12.763Z,31.43
2022-07-29T21:49:39.944Z,31.06
2022-07-29T21:52:07.899Z,32.16
2022-07-29T21:54:35.135Z,32.61
2022-07-29T21:57:02.011Z,33.47
2022-07-29T21:59:29.370Z,32.88
2022-07-29T22:01:56.354Z,32.59
2022-07-29T22:04:23.207Z,31.80
2022-07-29T22:06:50.080Z,31.30
2022-07-29T22:09:16.824Z,30.71
2022-07-29T22:11:43.660Z,31.19
2022-07-29T22:14:10.477Z,31.56
2022-07-29T22:16:37.330Z,31.25
2022-07-29T22:19:04.465Z,32.21
2022-07-29T22:21:31.458Z,31.64
2022-07-29T22:23:58.341Z,31.22
2022-07-29T22:26:25.105Z,30.31
2022-07-29T22:28:51.949Z,30.20
2022-07-29T22:31:18.894Z,30.68
2022-07-29T22:33:46.183Z,31.70
2022-07-29T22:36:12.914Z,31.22
2022-07-29T22:38:39.836Z,31.78
2022-07-29T22:41:06.613Z,33.27
2022-07-29T22:43:34.039Z,32.46
2022-07-29T22:46:01.026Z,32.99
2022-07-29T22:48:28.049Z,32.42
2022-07-29T22:50:54.816Z,33.33
2022-07-29T22:53:22.081Z,32.73
2022-07-29T22:55:48.829Z,31.81
2022-07-29T22:58:15.498Z,32.49
2022-07-29T23:00:42.270Z,33.07
2022-07-29T23:03:09.029Z,33.43
2022-07-29T23:05:35.846Z,33.10
2022-07-29T23:08:02.740Z,33.40
2022-07-29T23:10:29.632Z,32.92
2022-07-29T23:12:56.421Z,32.69
2022-07-29T23:15:24.465Z,32.50
2022-07-29T23:17:51.196Z,32.79
2022-07-29T23:20:18.301Z,32.31
2022-07-29T23:22:45.305Z,32.28
2022-07-29T23:25:12.107Z,32.00
2022-07-29T23:27:38.936Z,31.01
2022-07-29T23:30:06.838Z,31.86
2022-07-29T23:32:33.557Z,31.37
2022-07-29T23:35:00.782Z,31.64
2022-07-29T23:37:27.755Z,30.92
2022-07-29T23:39:55.414Z,31.21
2022-07-29T23:42:22.343Z,31.19
2022-07-29T23:44:49.130Z,30.75
2022-07-29T23:47:15.861Z,30.07
2022-07-29T23:49:42.558Z,29.72
2022-07-29T23:52:09.410Z,30.26
2022-07-29T23:54:36.126Z,29.92
2022-07-29T23:57:03.409Z,31.06
2022-07-29T23:59:30.264Z,30.45
